sensor_id;sensor_type;location;lat;lon;timestamp;temperature;humidity
62912;DHT22;49111;51.028;4.218;2023-04-16T00:00:44;9.80;99.90
62912;DHT22;49111;51.028;4.218;2023-04-16T00:03:42;9.70;99.90
62912;DHT22;49111;51.028;4.218;2023-04-16T00:06:22;9.80;99.90
62912;DHT22;49111;51.028;4.218;2023-04-16T00:09:01;9.80;99.90
62912;DHT22;49111;51.028;4.218;2023-04-16T00:11:34;9.80;99.90
62912;DHT22;49111;51.028;4.218;2023-04-16T00:14:04;9.80;99.90
62912;DHT22;49111;51.028;4.218;2023-04-16T00:16:32;10.00;99.90
62912;DHT22;49111;51.028;4.218;2023-04-16T00:19:02;9.90;99.90
62912;DHT22;49111;51.028;4.218;2023-04-16T00:21:47;9.90;99.90
62912;DHT22;49111;51.028;4.218;2023-04-16T00:24:22;9.90;99.90
62912;DHT22;49111;51.028;4.218;2023-04-16T00:26:48;9.90;99.90
62912;DHT22;49111;51.028;4.218;2023-04-16T00:29:25;9.90;99.90
62912;DHT22;49111;51.028;4.218;2023-04-16T00:35:21;9.80;99.90
62912;DHT22;49111;51.028;4.218;2023-04-16T00:40:52;9.80;99.90
62912;DHT22;49111;51.028;4.218;2023-04-16T00:43:35;9.80;99.90
62912;DHT22;49111;51.028;4.218;2023-04-16T00:46:15;9.90;99.90
62912;DHT22;49111;51.028;4.218;2023-04-16T00:51:59;9.80;99.90
62912;DHT22;49111;51.028;4.218;2023-04-16T00:54:30;9.80;99.90
62912;DHT22;49111;51.028;4.218;2023-04-16T00:57:07;9.80;99.90
62912;DHT22;49111;51.028;4.218;2023-04-16T00:59:35;9.60;99.90
62912;DHT22;49111;51.028;4.218;2023-04-16T01:02:04;9.50;99.90
62912;DHT22;49111;51.028;4.218;2023-04-16T01:04:38;9.60;99.90
62912;DHT22;49111;51.028;4.218;2023-04-16T01:07:30;9.60;99.90
62912;DHT22;49111;51.028;4.218;2023-04-16T01:09:58;9.70;99.90
62912;DHT22;49111;51.028;4.218;2023-04-16T01:12:26;9.70;99.90
62912;DHT22;49111;51.028;4.218;2023-04-16T01:14:56;9.80;99.90
62912;DHT22;49111;51.028;4.218;2023-04-16T01:20:23;9.80;99.90
62912;DHT22;49111;51.028;4.218;2023-04-16T01:23:21;9.70;99.90
62912;DHT22;49111;51.028;4.218;2023-04-16T01:26:13;9.70;99.90
62912;DHT22;49111;51.028;4.218;2023-04-16T01:28:50;9.70;99.90
62912;DHT22;49111;51.028;4.218;2023-04-16T01:31:22;9.80;99.90
62912;DHT22;49111;51.028;4.218;2023-04-16T01:34:00;9.60;99.90
62912;DHT22;49111;51.028;4.218;2023-04-16T01:36:36;9.70;99.90
62912;DHT22;49111;51.028;4.218;2023-04-16T01:39:17;9.60;99.90
62912;DHT22;49111;51.028;4.218;2023-04-16T01:41:53;9.70;99.90
62912;DHT22;49111;51.028;4.218;2023-04-16T01:44:19;9.90;99.90
62912;DHT22;49111;51.028;4.218;2023-04-16T01:46:49;9.60;99.90
62912;DHT22;49111;51.028;4.218;2023-04-16T01:49:22;9.70;99.90
62912;DHT22;49111;51.028;4.218;2023-04-16T01:52:04;9.90;99.90
62912;DHT22;49111;51.028;4.218;2023-04-16T01:55:00;9.60;99.90
62912;DHT22;49111;51.028;4.218;2023-04-16T01:57:26;9.50;99.90
62912;DHT22;49111;51.028;4.218;2023-04-16T02:00:02;9.60;99.90
62912;DHT22;49111;51.028;4.218;2023-04-16T02:02:29;9.60;99.90
62912;DHT22;49111;51.028;4.218;2023-04-16T02:05:09;9.60;99.90
62912;DHT22;49111;51.028;4.218;2023-04-16T02:07:44;9.60;99.90
62912;DHT22;49111;51.028;4.218;2023-04-16T02:10:20;9.60;99.90
62912;DHT22;49111;51.028;4.218;2023-04-16T02:13:09;9.50;99.90
62912;DHT22;49111;51.028;4.218;2023-04-16T02:15:35;9.50;99.90
62912;DHT22;49111;51.028;4.218;2023-04-16T02:18:05;9.50;99.90
62912;DHT22;49111;51.028;4.218;2023-04-16T02:20:43;9.60;99.90
62912;DHT22;49111;51.028;4.218;2023-04-16T02:23:13;9.70;99.90
62912;DHT22;49111;51.028;4.218;2023-04-16T02:25:46;9.80;99.90
62912;DHT22;49111;51.028;4.218;2023-04-16T02:28:16;9.80;99.90
62912;DHT22;49111;51.028;4.218;2023-04-16T02:30:56;9.80;99.90
62912;DHT22;49111;51.028;4.218;2023-04-16T02:33:32;9.80;99.90
62912;DHT22;49111;51.028;4.218;2023-04-16T02:36:24;9.80;99.90
62912;DHT22;49111;51.028;4.218;2023-04-16T02:45:31;9.90;99.90
62912;DHT22;49111;51.028;4.218;2023-04-16T02:48:31;9.90;99.90
62912;DHT22;49111;51.028;4.218;2023-04-16T02:51:02;9.90;99.90
62912;DHT22;49111;51.028;4.218;2023-04-16T02:53:33;9.80;99.90
62912;DHT22;49111;51.028;4.218;2023-04-16T02:56:36;9.80;99.90
62912;DHT22;49111;51.028;4.218;2023-04-16T02:59:09;9.70;99.90
62912;DHT22;49111;51.028;4.218;2023-04-16T03:01:47;9.80;99.90
62912;DHT22;49111;51.028;4.218;2023-04-16T03:08:07;9.70;99.90
62912;DHT22;49111;51.028;4.218;2023-04-16T03:10:46;9.50;99.90
62912;DHT22;49111;51.028;4.218;2023-04-16T03:13:50;9.50;99.90
62912;DHT22;49111;51.028;4.218;2023-04-16T03:16:25;9.60;99.90
62912;DHT22;49111;51.028;4.218;2023-04-16T03:22:46;9.60;99.90
62912;DHT22;49111;51.028;4.218;2023-04-16T03:25:18;9.60;99.90
62912;DHT22;49111;51.028;4.218;2023-04-16T03:27:46;9.60;99.90
62912;DHT22;49111;51.028;4.218;2023-04-16T03:34:07;9.60;99.90
62912;DHT22;49111;51.028;4.218;2023-04-16T03:39:51;9.60;99.90
62912;DHT22;49111;51.028;4.218;2023-04-16T03:42:18;9.60;99.90
62912;DHT22;49111;51.028;4.218;2023-04-16T03:44:44;9.60;99.90
62912;DHT22;49111;51.028;4.218;2023-04-16T03:47:10;9.60;99.90
62912;DHT22;49111;51.028;4.218;2023-04-16T03:49:37;9.60;99.90
62912;DHT22;49111;51.028;4.218;2023-04-16T03:52:02;9.60;99.90
62912;DHT22;49111;51.028;4.218;2023-04-16T03:54:29;9.60;99.90
62912;DHT22;49111;51.028;4.218;2023-04-16T03:57:07;9.70;99.90
62912;DHT22;49111;51.028;4.218;2023-04-16T03:59:33;9.60;99.90
62912;DHT22;49111;51.028;4.218;2023-04-16T04:01:59;9.70;99.90
62912;DHT22;49111;51.028;4.218;2023-04-16T04:04:26;9.70;99.90
62912;DHT22;49111;51.028;4.218;2023-04-16T04:06:53;9.80;99.90
62912;DHT22;49111;51.028;4.218;2023-04-16T04:09:19;9.80;99.90
62912;DHT22;49111;51.028;4.218;2023-04-16T04:14:58;9.60;99.90
62912;DHT22;49111;51.028;4.218;2023-04-16T04:17:39;9.60;99.90
62912;DHT22;49111;51.028;4.218;2023-04-16T04:20:18;9.60;99.90
62912;DHT22;49111;51.028;4.218;2023-04-16T04:22:49;9.60;99.90
62912;DHT22;49111;51.028;4.218;2023-04-16T04:25:27;9.60;99.90
62912;DHT22;49111;51.028;4.218;2023-04-16T04:27:56;9.60;99.90
62912;DHT22;49111;51.028;4.218;2023-04-16T04:30:22;9.60;99.90
62912;DHT22;49111;51.028;4.218;2023-04-16T04:32:51;9.60;99.90
62912;DHT22;49111;51.028;4.218;2023-04-16T04:35:24;9.60;99.90
62912;DHT22;49111;51.028;4.218;2023-04-16T04:37:52;9.70;99.90
62912;DHT22;49111;51.028;4.218;2023-04-16T04:40:23;9.70;99.90
62912;DHT22;49111;51.028;4.218;2023-04-16T04:45:47;9.70;99.90
62912;DHT22;49111;51.028;4.218;2023-04-16T04:48:20;9.60;99.90
62912;DHT22;49111;51.028;4.218;2023-04-16T04:51:17;9.60;99.90
62912;DHT22;49111;51.028;4.218;2023-04-16T04:54:17;9.70;99.90
62912;DHT22;49111;51.028;4.218;2023-04-16T04:56:43;9.60;99.90
62912;DHT22;49111;51.028;4.218;2023-04-16T04:59:22;9.60;99.90
62912;DHT22;49111;51.028;4.218;2023-04-16T05:01:49;9.70;99.90
62912;DHT22;49111;51.028;4.218;2023-04-16T05:04:20;9.80;99.90
62912;DHT22;49111;51.028;4.218;2023-04-16T05:07:02;9.60;99.90
62912;DHT22;49111;51.028;4.218;2023-04-16T05:09:27;9.60;99.90
62912;DHT22;49111;51.028;4.218;2023-04-16T05:12:05;9.70;99.90
62912;DHT22;49111;51.028;4.218;2023-04-16T05:14:38;9.80;99.90
62912;DHT22;49111;51.028;4.218;2023-04-16T05:17:07;9.80;99.90
62912;DHT22;49111;51.028;4.218;2023-04-16T05:19:48;9.80;99.90
62912;DHT22;49111;51.028;4.218;2023-04-16T05:22:20;9.70;99.90
62912;DHT22;49111;51.028;4.218;2023-04-16T05:24:49;9.80;99.90
62912;DHT22;49111;51.028;4.218;2023-04-16T05:27:14;9.70;99.90
62912;DHT22;49111;51.028;4.218;2023-04-16T05:29:41;9.70;99.90
62912;DHT22;49111;51.028;4.218;2023-04-16T05:32:13;9.70;99.90
62912;DHT22;49111;51.028;4.218;2023-04-16T05:34:44;9.70;99.90
62912;DHT22;49111;51.028;4.218;2023-04-16T05:37:24;9.70;99.90
62912;DHT22;49111;51.028;4.218;2023-04-16T05:40:08;9.70;99.90
62912;DHT22;49111;51.028;4.218;2023-04-16T05:42:34;9.70;99.90
62912;DHT22;49111;51.028;4.218;2023-04-16T05:45:02;9.70;99.90
62912;DHT22;49111;51.028;4.218;2023-04-16T05:47:48;9.70;99.90
62912;DHT22;49111;51.028;4.218;2023-04-16T05:50:16;9.70;99.90
62912;DHT22;49111;51.028;4.218;2023-04-16T05:52:50;9.70;99.90
62912;DHT22;49111;51.028;4.218;2023-04-16T05:55:33;9.70;99.90
62912;DHT22;49111;51.028;4.218;2023-04-16T05:58:13;9.60;99.90
62912;DHT22;49111;51.028;4.218;2023-04-16T06:01:15;9.70;99.90
62912;DHT22;49111;51.028;4.218;2023-04-16T06:03:45;9.70;99.90
62912;DHT22;49111;51.028;4.218;2023-04-16T06:06:12;10.00;99.90
62912;DHT22;49111;51.028;4.218;2023-04-16T06:11:41;9.70;99.90
62912;DHT22;49111;51.028;4.218;2023-04-16T06:14:08;9.70;99.90
62912;DHT22;49111;51.028;4.218;2023-04-16T06:16:38;9.70;99.90
62912;DHT22;49111;51.028;4.218;2023-04-16T06:19:12;9.80;99.90
62912;DHT22;49111;51.028;4.218;2023-04-16T06:25:22;9.80;99.90
62912;DHT22;49111;51.028;4.218;2023-04-16T06:27:53;9.80;99.90
62912;DHT22;49111;51.028;4.218;2023-04-16T06:30:21;9.70;99.90
62912;DHT22;49111;51.028;4.218;2023-04-16T06:32:48;9.70;99.90
62912;DHT22;49111;51.028;4.218;2023-04-16T06:38:32;9.80;99.90
62912;DHT22;49111;51.028;4.218;2023-04-16T06:41:01;9.80;99.90
62912;DHT22;49111;51.028;4.218;2023-04-16T06:43:41;9.70;99.90
62912;DHT22;49111;51.028;4.218;2023-04-16T06:46:09;9.80;99.90
62912;DHT22;49111;51.028;4.218;2023-04-16T06:48:43;9.90;99.90
62912;DHT22;49111;51.028;4.218;2023-04-16T06:51:11;9.80;99.90
62912;DHT22;49111;51.028;4.218;2023-04-16T06:53:56;9.80;99.90
62912;DHT22;49111;51.028;4.218;2023-04-16T06:56:41;9.70;99.90
62912;DHT22;49111;51.028;4.218;2023-04-16T06:59:11;9.70;99.90
62912;DHT22;49111;51.028;4.218;2023-04-16T07:01:37;9.80;99.90
62912;DHT22;49111;51.028;4.218;2023-04-16T07:04:18;9.80;99.90
62912;DHT22;49111;51.028;4.218;2023-04-16T07:09:48;9.90;99.90
62912;DHT22;49111;51.028;4.218;2023-04-16T07:12:23;10.10;99.90
62912;DHT22;49111;51.028;4.218;2023-04-16T07:14:50;9.90;99.90
62912;DHT22;49111;51.028;4.218;2023-04-16T07:17:29;9.90;99.90
62912;DHT22;49111;51.028;4.218;2023-04-16T07:20:03;10.00;99.90
62912;DHT22;49111;51.028;4.218;2023-04-16T07:22:30;10.00;99.90
62912;DHT22;49111;51.028;4.218;2023-04-16T07:25:03;10.00;99.90
62912;DHT22;49111;51.028;4.218;2023-04-16T07:27:42;10.00;99.90
62912;DHT22;49111;51.028;4.218;2023-04-16T07:30:18;10.10;99.90
62912;DHT22;49111;51.028;4.218;2023-04-16T07:33:21;9.90;99.90
62912;DHT22;49111;51.028;4.218;2023-04-16T07:35:48;9.80;99.90
62912;DHT22;49111;51.028;4.218;2023-04-16T07:38:20;9.90;99.90
62912;DHT22;49111;51.028;4.218;2023-04-16T07:40:54;10.00;99.90
62912;DHT22;49111;51.028;4.218;2023-04-16T07:43:22;10.10;99.90
62912;DHT22;49111;51.028;4.218;2023-04-16T07:48:59;10.00;99.90
62912;DHT22;49111;51.028;4.218;2023-04-16T07:51:47;10.10;99.90
62912;DHT22;49111;51.028;4.218;2023-04-16T07:54:19;10.10;99.90
62912;DHT22;49111;51.028;4.218;2023-04-16T07:56:46;10.10;99.90
62912;DHT22;49111;51.028;4.218;2023-04-16T07:59:30;10.10;99.90
62912;DHT22;49111;51.028;4.218;2023-04-16T08:02:03;10.00;99.90
62912;DHT22;49111;51.028;4.218;2023-04-16T08:04:40;10.10;99.90
62912;DHT22;49111;51.028;4.218;2023-04-16T08:07:12;9.90;99.90
62912;DHT22;49111;51.028;4.218;2023-04-16T08:09:52;9.80;99.90
62912;DHT22;49111;51.028;4.218;2023-04-16T08:12:19;9.80;99.90
62912;DHT22;49111;51.028;4.218;2023-04-16T08:14:46;9.70;99.90
62912;DHT22;49111;51.028;4.218;2023-04-16T08:17:13;9.70;99.90
62912;DHT22;49111;51.028;4.218;2023-04-16T08:19:47;9.60;99.90
62912;DHT22;49111;51.028;4.218;2023-04-16T08:22:19;9.70;99.90
62912;DHT22;49111;51.028;4.218;2023-04-16T08:24:48;9.70;99.90
62912;DHT22;49111;51.028;4.218;2023-04-16T08:27:14;9.60;99.90
62912;DHT22;49111;51.028;4.218;2023-04-16T08:33:39;9.60;99.90
62912;DHT22;49111;51.028;4.218;2023-04-16T08:36:10;9.70;99.90
62912;DHT22;49111;51.028;4.218;2023-04-16T08:38:36;9.80;99.90
62912;DHT22;49111;51.028;4.218;2023-04-16T08:41:05;10.00;99.90
62912;DHT22;49111;51.028;4.218;2023-04-16T08:43:38;9.80;99.90
62912;DHT22;49111;51.028;4.218;2023-04-16T08:46:11;9.70;99.90
62912;DHT22;49111;51.028;4.218;2023-04-16T08:48:38;9.60;99.90
62912;DHT22;49111;51.028;4.218;2023-04-16T08:51:38;9.70;99.90
62912;DHT22;49111;51.028;4.218;2023-04-16T08:54:11;9.70;99.90
62912;DHT22;49111;51.028;4.218;2023-04-16T08:56:43;9.70;99.90
62912;DHT22;49111;51.028;4.218;2023-04-16T08:59:22;9.70;99.90
62912;DHT22;49111;51.028;4.218;2023-04-16T09:01:54;9.70;99.90
62912;DHT22;49111;51.028;4.218;2023-04-16T09:04:25;9.80;99.90
62912;DHT22;49111;51.028;4.218;2023-04-16T09:07:03;9.90;99.90
62912;DHT22;49111;51.028;4.218;2023-04-16T09:09:39;10.00;99.90
62912;DHT22;49111;51.028;4.218;2023-04-16T09:12:18;10.00;99.90
62912;DHT22;49111;51.028;4.218;2023-04-16T09:14:48;10.00;99.90
62912;DHT22;49111;51.028;4.218;2023-04-16T09:17:34;10.10;99.90
62912;DHT22;49111;51.028;4.218;2023-04-16T09:23:08;10.00;99.90
62912;DHT22;49111;51.028;4.218;2023-04-16T09:25:37;10.00;99.90
62912;DHT22;49111;51.028;4.218;2023-04-16T09:28:09;10.00;99.90
62912;DHT22;49111;51.028;4.218;2023-04-16T09:30:44;10.00;99.90
62912;DHT22;49111;51.028;4.218;2023-04-16T09:33:17;10.10;99.90
62912;DHT22;49111;51.028;4.218;2023-04-16T09:35:51;10.20;99.90
62912;DHT22;49111;51.028;4.218;2023-04-16T09:44:08;10.30;99.90
62912;DHT22;49111;51.028;4.218;2023-04-16T09:46:39;10.30;99.90
62912;DHT22;49111;51.028;4.218;2023-04-16T09:49:16;10.30;99.90
62912;DHT22;49111;51.028;4.218;2023-04-16T09:54:52;10.40;99.90
62912;DHT22;49111;51.028;4.218;2023-04-16T09:57:23;10.40;99.90
62912;DHT22;49111;51.028;4.218;2023-04-16T10:00:12;10.30;99.90
62912;DHT22;49111;51.028;4.218;2023-04-16T10:03:03;10.30;99.90
62912;DHT22;49111;51.028;4.218;2023-04-16T10:05:29;10.40;99.90
62912;DHT22;49111;51.028;4.218;2023-04-16T10:08:13;10.50;99.90
62912;DHT22;49111;51.028;4.218;2023-04-16T10:10:56;10.70;99.90
62912;DHT22;49111;51.028;4.218;2023-04-16T10:13:23;10.60;99.90
62912;DHT22;49111;51.028;4.218;2023-04-16T10:16:08;10.60;99.90
62912;DHT22;49111;51.028;4.218;2023-04-16T10:18:41;10.50;99.90
62912;DHT22;49111;51.028;4.218;2023-04-16T10:21:12;10.50;99.90
62912;DHT22;49111;51.028;4.218;2023-04-16T10:24:03;10.40;99.90
62912;DHT22;49111;51.028;4.218;2023-04-16T10:26:30;10.50;99.90
62912;DHT22;49111;51.028;4.218;2023-04-16T10:29:01;10.50;99.90
62912;DHT22;49111;51.028;4.218;2023-04-16T10:31:28;10.60;99.90
62912;DHT22;49111;51.028;4.218;2023-04-16T10:33:56;10.60;99.90
62912;DHT22;49111;51.028;4.218;2023-04-16T10:36:27;10.50;99.90
62912;DHT22;49111;51.028;4.218;2023-04-16T10:38:58;10.50;99.90
62912;DHT22;49111;51.028;4.218;2023-04-16T10:41:31;10.40;99.90
62912;DHT22;49111;51.028;4.218;2023-04-16T10:44:07;10.40;99.90
62912;DHT22;49111;51.028;4.218;2023-04-16T10:46:53;10.50;99.90
62912;DHT22;49111;51.028;4.218;2023-04-16T10:49:36;10.50;99.90
62912;DHT22;49111;51.028;4.218;2023-04-16T10:52:20;10.60;99.90
62912;DHT22;49111;51.028;4.218;2023-04-16T10:54:58;10.70;99.90
62912;DHT22;49111;51.028;4.218;2023-04-16T10:57:31;10.60;99.90
62912;DHT22;49111;51.028;4.218;2023-04-16T11:00:24;10.70;99.90
62912;DHT22;49111;51.028;4.218;2023-04-16T11:03:12;10.60;99.90
62912;DHT22;49111;51.028;4.218;2023-04-16T11:06:12;10.60;99.90
62912;DHT22;49111;51.028;4.218;2023-04-16T11:08:44;10.50;99.90
62912;DHT22;49111;51.028;4.218;2023-04-16T11:11:40;10.50;99.90
62912;DHT22;49111;51.028;4.218;2023-04-16T11:14:08;10.40;99.90
62912;DHT22;49111;51.028;4.218;2023-04-16T11:17:05;10.40;99.90
62912;DHT22;49111;51.028;4.218;2023-04-16T11:19:31;10.50;99.90
62912;DHT22;49111;51.028;4.218;2023-04-16T11:22:02;10.60;99.90
62912;DHT22;49111;51.028;4.218;2023-04-16T11:24:31;10.60;99.90
62912;DHT22;49111;51.028;4.218;2023-04-16T11:26:57;10.70;99.90
62912;DHT22;49111;51.028;4.218;2023-04-16T11:29:27;10.80;99.90
62912;DHT22;49111;51.028;4.218;2023-04-16T11:32:23;10.80;99.90
62912;DHT22;49111;51.028;4.218;2023-04-16T11:34:58;10.90;99.90
62912;DHT22;49111;51.028;4.218;2023-04-16T11:37:40;10.90;99.90
62912;DHT22;49111;51.028;4.218;2023-04-16T11:40:21;11.00;99.90
62912;DHT22;49111;51.028;4.218;2023-04-16T11:42:54;11.10;99.90
62912;DHT22;49111;51.028;4.218;2023-04-16T11:45:26;11.00;99.90
62912;DHT22;49111;51.028;4.218;2023-04-16T11:48:14;11.00;99.90
62912;DHT22;49111;51.028;4.218;2023-04-16T11:50:41;11.00;99.90
62912;DHT22;49111;51.028;4.218;2023-04-16T11:56:35;11.10;99.90
62912;DHT22;49111;51.028;4.218;2023-04-16T11:59:22;11.30;99.90
62912;DHT22;49111;51.028;4.218;2023-04-16T12:01:54;11.20;99.90
62912;DHT22;49111;51.028;4.218;2023-04-16T12:04:25;11.10;99.90
62912;DHT22;49111;51.028;4.218;2023-04-16T12:15:55;11.20;99.90
62912;DHT22;49111;51.028;4.218;2023-04-16T12:18:27;11.30;99.90
62912;DHT22;49111;51.028;4.218;2023-04-16T12:21:10;11.40;99.90
62912;DHT22;49111;51.028;4.218;2023-04-16T12:26:53;11.60;99.90
62912;DHT22;49111;51.028;4.218;2023-04-16T12:29:30;11.60;99.90
62912;DHT22;49111;51.028;4.218;2023-04-16T12:35:30;11.60;99.90
62912;DHT22;49111;51.028;4.218;2023-04-16T12:37:56;11.70;99.90
62912;DHT22;49111;51.028;4.218;2023-04-16T12:43:26;11.90;99.90
62912;DHT22;49111;51.028;4.218;2023-04-16T12:45:56;12.00;99.90
62912;DHT22;49111;51.028;4.218;2023-04-16T12:48:23;12.10;99.90
62912;DHT22;49111;51.028;4.218;2023-04-16T12:50:53;12.10;99.90
62912;DHT22;49111;51.028;4.218;2023-04-16T12:53:22;11.90;99.90
62912;DHT22;49111;51.028;4.218;2023-04-16T12:56:00;11.80;99.90
62912;DHT22;49111;51.028;4.218;2023-04-16T12:58:26;12.00;99.90
62912;DHT22;49111;51.028;4.218;2023-04-16T13:00:54;12.00;99.90
62912;DHT22;49111;51.028;4.218;2023-04-16T13:03:31;12.10;99.90
62912;DHT22;49111;51.028;4.218;2023-04-16T13:06:18;12.30;99.90
62912;DHT22;49111;51.028;4.218;2023-04-16T13:09:20;12.40;99.90
62912;DHT22;49111;51.028;4.218;2023-04-16T13:11:48;12.50;99.90
62912;DHT22;49111;51.028;4.218;2023-04-16T13:14:14;12.60;99.90
62912;DHT22;49111;51.028;4.218;2023-04-16T13:16:45;12.50;99.90
62912;DHT22;49111;51.028;4.218;2023-04-16T13:19:18;12.60;99.90
62912;DHT22;49111;51.028;4.218;2023-04-16T13:21:47;12.50;99.90
62912;DHT22;49111;51.028;4.218;2023-04-16T13:24:23;12.50;99.90
62912;DHT22;49111;51.028;4.218;2023-04-16T13:26:50;12.70;99.90
62912;DHT22;49111;51.028;4.218;2023-04-16T13:29:22;12.60;99.90
62912;DHT22;49111;51.028;4.218;2023-04-16T13:35:28;12.60;99.90
62912;DHT22;49111;51.028;4.218;2023-04-16T13:37:56;12.60;99.90
62912;DHT22;49111;51.028;4.218;2023-04-16T13:40:33;12.70;99.90
62912;DHT22;49111;51.028;4.218;2023-04-16T13:43:01;12.80;99.90
62912;DHT22;49111;51.028;4.218;2023-04-16T13:45:27;12.90;99.90
62912;DHT22;49111;51.028;4.218;2023-04-16T13:47:55;12.90;99.90
62912;DHT22;49111;51.028;4.218;2023-04-16T13:50:22;12.80;99.90
62912;DHT22;49111;51.028;4.218;2023-04-16T13:53:04;12.80;99.90
62912;DHT22;49111;51.028;4.218;2023-04-16T13:55:30;12.70;99.90
62912;DHT22;49111;51.028;4.218;2023-04-16T13:58:02;12.80;99.90
62912;DHT22;49111;51.028;4.218;2023-04-16T14:00:32;12.80;99.90
62912;DHT22;49111;51.028;4.218;2023-04-16T14:03:01;12.80;99.90
62912;DHT22;49111;51.028;4.218;2023-04-16T14:05:27;12.80;99.90
62912;DHT22;49111;51.028;4.218;2023-04-16T14:08:02;12.70;99.90
62912;DHT22;49111;51.028;4.218;2023-04-16T14:11:02;12.70;99.90
62912;DHT22;49111;51.028;4.218;2023-04-16T14:13:30;12.90;99.90
62912;DHT22;49111;51.028;4.218;2023-04-16T14:15:57;12.90;99.90
62912;DHT22;49111;51.028;4.218;2023-04-16T14:18:52;12.80;99.90
62912;DHT22;49111;51.028;4.218;2023-04-16T14:21:29;13.00;99.90
62912;DHT22;49111;51.028;4.218;2023-04-16T14:23:55;13.10;99.90
62912;DHT22;49111;51.028;4.218;2023-04-16T14:26:31;13.20;99.90
62912;DHT22;49111;51.028;4.218;2023-04-16T14:32:06;13.00;99.90
62912;DHT22;49111;51.028;4.218;2023-04-16T14:34:33;13.00;99.90
62912;DHT22;49111;51.028;4.218;2023-04-16T14:37:02;13.10;99.90
62912;DHT22;49111;51.028;4.218;2023-04-16T14:39:41;13.00;99.90
62912;DHT22;49111;51.028;4.218;2023-04-16T14:42:08;12.90;99.90
62912;DHT22;49111;51.028;4.218;2023-04-16T14:47:35;12.90;99.90
62912;DHT22;49111;51.028;4.218;2023-04-16T14:54:03;12.70;99.90
62912;DHT22;49111;51.028;4.218;2023-04-16T14:56:28;12.60;99.90
62912;DHT22;49111;51.028;4.218;2023-04-16T14:58:56;12.60;99.90
62912;DHT22;49111;51.028;4.218;2023-04-16T15:01:48;12.60;99.90
62912;DHT22;49111;51.028;4.218;2023-04-16T15:04:26;12.70;99.90
62912;DHT22;49111;51.028;4.218;2023-04-16T15:06:56;12.80;99.90
62912;DHT22;49111;51.028;4.218;2023-04-16T15:09:32;12.90;99.90
62912;DHT22;49111;51.028;4.218;2023-04-16T15:12:04;12.80;99.90
62912;DHT22;49111;51.028;4.218;2023-04-16T15:14:36;12.70;99.90
62912;DHT22;49111;51.028;4.218;2023-04-16T15:17:04;12.60;99.90
62912;DHT22;49111;51.028;4.218;2023-04-16T15:19:31;12.70;99.90
62912;DHT22;49111;51.028;4.218;2023-04-16T15:22:03;12.50;99.90
62912;DHT22;49111;51.028;4.218;2023-04-16T15:24:48;12.50;99.90
62912;DHT22;49111;51.028;4.218;2023-04-16T15:27:16;12.60;99.90
62912;DHT22;49111;51.028;4.218;2023-04-16T15:29:42;12.70;99.90
62912;DHT22;49111;51.028;4.218;2023-04-16T15:32:22;12.80;99.90
62912;DHT22;49111;51.028;4.218;2023-04-16T15:34:49;12.80;99.90
62912;DHT22;49111;51.028;4.218;2023-04-16T15:37:22;12.80;99.90
62912;DHT22;49111;51.028;4.218;2023-04-16T15:39:56;12.70;99.90
62912;DHT22;49111;51.028;4.218;2023-04-16T15:42:32;12.70;99.90
62912;DHT22;49111;51.028;4.218;2023-04-16T15:45:01;12.80;99.90
62912;DHT22;49111;51.028;4.218;2023-04-16T15:47:29;12.90;99.90
62912;DHT22;49111;51.028;4.218;2023-04-16T15:50:02;12.90;99.90
62912;DHT22;49111;51.028;4.218;2023-04-16T15:52:45;13.00;99.90
62912;DHT22;49111;51.028;4.218;2023-04-16T15:55:12;13.00;99.90
62912;DHT22;49111;51.028;4.218;2023-04-16T15:57:42;13.00;99.90
62912;DHT22;49111;51.028;4.218;2023-04-16T16:00:13;13.00;99.90
62912;DHT22;49111;51.028;4.218;2023-04-16T16:02:48;13.10;99.90
62912;DHT22;49111;51.028;4.218;2023-04-16T16:05:20;13.10;99.90
62912;DHT22;49111;51.028;4.218;2023-04-16T16:07:49;13.00;99.90
62912;DHT22;49111;51.028;4.218;2023-04-16T16:10:18;13.00;99.90
62912;DHT22;49111;51.028;4.218;2023-04-16T16:13:16;13.00;99.90
62912;DHT22;49111;51.028;4.218;2023-04-16T16:15:43;13.20;99.90
62912;DHT22;49111;51.028;4.218;2023-04-16T16:18:27;13.40;99.90
62912;DHT22;49111;51.028;4.218;2023-04-16T16:21:14;13.50;99.90
62912;DHT22;49111;51.028;4.218;2023-04-16T16:23:57;13.50;99.90
62912;DHT22;49111;51.028;4.218;2023-04-16T16:26:27;13.40;99.90
62912;DHT22;49111;51.028;4.218;2023-04-16T16:29:11;13.30;99.90
62912;DHT22;49111;51.028;4.218;2023-04-16T16:31:39;13.40;99.90
62912;DHT22;49111;51.028;4.218;2023-04-16T16:34:11;13.40;99.90
62912;DHT22;49111;51.028;4.218;2023-04-16T16:36:41;13.40;99.90
62912;DHT22;49111;51.028;4.218;2023-04-16T16:39:13;13.50;99.90
62912;DHT22;49111;51.028;4.218;2023-04-16T16:41:42;13.40;99.90
62912;DHT22;49111;51.028;4.218;2023-04-16T16:44:11;13.40;99.90
62912;DHT22;49111;51.028;4.218;2023-04-16T16:46:48;13.40;99.90
62912;DHT22;49111;51.028;4.218;2023-04-16T16:49:18;13.50;99.90
62912;DHT22;49111;51.028;4.218;2023-04-16T16:52:08;13.40;99.90
62912;DHT22;49111;51.028;4.218;2023-04-16T16:54:45;13.30;99.90
62912;DHT22;49111;51.028;4.218;2023-04-16T16:57:26;13.10;99.90
62912;DHT22;49111;51.028;4.218;2023-04-16T16:59:58;13.10;99.90
62912;DHT22;49111;51.028;4.218;2023-04-16T17:02:29;13.10;99.90
62912;DHT22;49111;51.028;4.218;2023-04-16T17:09:25;13.00;99.90
62912;DHT22;49111;51.028;4.218;2023-04-16T17:12:10;12.80;99.90
62912;DHT22;49111;51.028;4.218;2023-04-16T17:21:36;12.70;99.90
62912;DHT22;49111;51.028;4.218;2023-04-16T17:24:03;12.60;99.90
62912;DHT22;49111;51.028;4.218;2023-04-16T17:26:31;12.70;99.90
62912;DHT22;49111;51.028;4.218;2023-04-16T17:28:56;12.60;99.90
62912;DHT22;49111;51.028;4.218;2023-04-16T17:31:24;12.50;99.90
62912;DHT22;49111;51.028;4.218;2023-04-16T17:33:54;12.40;99.90
62912;DHT22;49111;51.028;4.218;2023-04-16T17:36:22;12.40;99.90
62912;DHT22;49111;51.028;4.218;2023-04-16T17:38:54;12.40;99.90
62912;DHT22;49111;51.028;4.218;2023-04-16T17:41:22;12.40;99.90
62912;DHT22;49111;51.028;4.218;2023-04-16T17:43:49;12.40;99.90
62912;DHT22;49111;51.028;4.218;2023-04-16T17:46:18;12.50;99.90
62912;DHT22;49111;51.028;4.218;2023-04-16T17:48:52;12.50;99.90
62912;DHT22;49111;51.028;4.218;2023-04-16T17:51:32;12.40;99.90
62912;DHT22;49111;51.028;4.218;2023-04-16T17:53:59;12.30;99.90
62912;DHT22;49111;51.028;4.218;2023-04-16T17:56:28;12.40;99.90
62912;DHT22;49111;51.028;4.218;2023-04-16T17:59:04;12.40;99.90
62912;DHT22;49111;51.028;4.218;2023-04-16T18:01:30;12.30;99.90
62912;DHT22;49111;51.028;4.218;2023-04-16T18:03:55;12.30;99.90
62912;DHT22;49111;51.028;4.218;2023-04-16T18:06:21;12.40;99.90
62912;DHT22;49111;51.028;4.218;2023-04-16T18:08:47;12.30;99.90
62912;DHT22;49111;51.028;4.218;2023-04-16T18:11:13;12.30;99.90
62912;DHT22;49111;51.028;4.218;2023-04-16T18:13:39;12.20;99.90
62912;DHT22;49111;51.028;4.218;2023-04-16T18:16:05;12.30;99.90
62912;DHT22;49111;51.028;4.218;2023-04-16T18:18:31;12.40;99.90